sensor_id;sensor_type;location;lat;lon;timestamp;P1;durP1;ratioP1;P2;durP2;ratioP2
75021;SDS011;63583;49.976;20.182;2023-08-21T00:00:03;17.70;;;13.40;;
75021;SDS011;63583;49.976;20.182;2023-08-21T00:02:29;16.02;;;12.52;;
75021;SDS011;63583;49.976;20.182;2023-08-21T00:04:55;17.73;;;13.68;;
75021;SDS011;63583;49.976;20.182;2023-08-21T00:07:21;16.25;;;13.77;;
75021;SDS011;63583;49.976;20.182;2023-08-21T00:09:47;16.33;;;13.25;;
75021;SDS011;63583;49.976;20.182;2023-08-21T00:12:12;20.08;;;14.05;;
75021;SDS011;63583;49.976;20.182;2023-08-21T00:14:38;16.92;;;14.05;;
75021;SDS011;63583;49.976;20.182;2023-08-21T00:17:04;18.73;;;15.18;;
75021;SDS011;63583;49.976;20.182;2023-08-21T00:19:29;16.88;;;14.05;;
75021;SDS011;63583;49.976;20.182;2023-08-21T00:21:55;17.25;;;13.82;;
75021;SDS011;63583;49.976;20.182;2023-08-21T00:24:21;16.60;;;14.15;;
75021;SDS011;63583;49.976;20.182;2023-08-21T00:26:47;18.50;;;14.73;;
75021;SDS011;63583;49.976;20.182;2023-08-21T00:29:12;20.73;;;14.05;;
75021;SDS011;63583;49.976;20.182;2023-08-21T00:31:38;17.20;;;13.35;;
75021;SDS011;63583;49.976;20.182;2023-08-21T00:34:03;15.35;;;12.35;;
75021;SDS011;63583;49.976;20.182;2023-08-21T00:36:29;17.95;;;13.18;;
75021;SDS011;63583;49.976;20.182;2023-08-21T00:38:55;17.73;;;14.00;;
75021;SDS011;63583;49.976;20.182;2023-08-21T00:41:20;16.05;;;13.85;;
75021;SDS011;63583;49.976;20.182;2023-08-21T00:43:46;15.10;;;12.63;;
75021;SDS011;63583;49.976;20.182;2023-08-21T00:46:12;15.05;;;12.13;;
75021;SDS011;63583;49.976;20.182;2023-08-21T00:48:38;17.10;;;13.48;;
75021;SDS011;63583;49.976;20.182;2023-08-21T00:51:04;16.65;;;12.35;;
75021;SDS011;63583;49.976;20.182;2023-08-21T00:53:32;16.50;;;12.85;;
75021;SDS011;63583;49.976;20.182;2023-08-21T00:55:58;14.55;;;12.55;;
75021;SDS011;63583;49.976;20.182;2023-08-21T00:58:24;16.88;;;13.15;;
75021;SDS011;63583;49.976;20.182;2023-08-21T01:00:50;13.73;;;11.82;;
75021;SDS011;63583;49.976;20.182;2023-08-21T01:03:17;14.73;;;12.48;;
75021;SDS011;63583;49.976;20.182;2023-08-21T01:05:43;15.15;;;12.38;;
75021;SDS011;63583;49.976;20.182;2023-08-21T01:08:18;15.82;;;12.60;;
75021;SDS011;63583;49.976;20.182;2023-08-21T01:10:53;14.70;;;12.57;;
75021;SDS011;63583;49.976;20.182;2023-08-21T01:16:11;17.50;;;12.98;;
75021;SDS011;63583;49.976;20.182;2023-08-21T01:18:39;17.15;;;14.02;;
75021;SDS011;63583;49.976;20.182;2023-08-21T01:21:06;16.38;;;13.27;;
75021;SDS011;63583;49.976;20.182;2023-08-21T01:23:32;15.82;;;11.90;;
75021;SDS011;63583;49.976;20.182;2023-08-21T01:26:02;17.55;;;13.50;;
75021;SDS011;63583;49.976;20.182;2023-08-21T01:28:28;16.40;;;13.57;;
75021;SDS011;63583;49.976;20.182;2023-08-21T01:30:59;17.08;;;13.35;;
75021;SDS011;63583;49.976;20.182;2023-08-21T01:33:44;15.50;;;12.95;;
75021;SDS011;63583;49.976;20.182;2023-08-21T01:36:13;15.18;;;13.18;;
75021;SDS011;63583;49.976;20.182;2023-08-21T01:38:39;15.45;;;13.00;;
75021;SDS011;63583;49.976;20.182;2023-08-21T01:41:06;16.67;;;12.88;;
75021;SDS011;63583;49.976;20.182;2023-08-21T01:43:31;17.88;;;13.40;;
75021;SDS011;63583;49.976;20.182;2023-08-21T01:45:57;16.73;;;13.35;;
75021;SDS011;63583;49.976;20.182;2023-08-21T01:48:23;14.93;;;13.07;;
75021;SDS011;63583;49.976;20.182;2023-08-21T01:50:48;15.63;;;12.60;;
75021;SDS011;63583;49.976;20.182;2023-08-21T01:53:14;15.07;;;12.55;;
75021;SDS011;63583;49.976;20.182;2023-08-21T01:55:40;15.20;;;13.02;;
75021;SDS011;63583;49.976;20.182;2023-08-21T01:58:05;15.63;;;13.32;;
75021;SDS011;63583;49.976;20.182;2023-08-21T02:00:31;15.40;;;12.85;;
75021;SDS011;63583;49.976;20.182;2023-08-21T02:02:56;16.98;;;13.18;;
75021;SDS011;63583;49.976;20.182;2023-08-21T02:05:22;14.70;;;13.10;;
75021;SDS011;63583;49.976;20.182;2023-08-21T02:07:48;15.43;;;13.02;;
75021;SDS011;63583;49.976;20.182;2023-08-21T02:10:13;16.65;;;13.43;;
75021;SDS011;63583;49.976;20.182;2023-08-21T02:12:39;14.98;;;13.00;;
75021;SDS011;63583;49.976;20.182;2023-08-21T02:15:05;15.88;;;13.15;;
75021;SDS011;63583;49.976;20.182;2023-08-21T02:17:31;15.43;;;13.55;;
75021;SDS011;63583;49.976;20.182;2023-08-21T02:19:57;16.63;;;13.95;;
75021;SDS011;63583;49.976;20.182;2023-08-21T02:22:23;15.75;;;13.35;;
75021;SDS011;63583;49.976;20.182;2023-08-21T02:24:49;17.60;;;12.73;;
75021;SDS011;63583;49.976;20.182;2023-08-21T02:27:14;16.33;;;13.80;;
75021;SDS011;63583;49.976;20.182;2023-08-21T02:29:40;16.77;;;13.30;;
75021;SDS011;63583;49.976;20.182;2023-08-21T02:32:05;18.45;;;14.05;;
75021;SDS011;63583;49.976;20.182;2023-08-21T02:34:31;20.08;;;13.35;;
75021;SDS011;63583;49.976;20.182;2023-08-21T02:36:57;18.20;;;13.23;;
75021;SDS011;63583;49.976;20.182;2023-08-21T02:39:23;17.73;;;12.95;;
75021;SDS011;63583;49.976;20.182;2023-08-21T02:41:49;13.95;;;11.32;;
75021;SDS011;63583;49.976;20.182;2023-08-21T02:44:15;16.92;;;13.38;;
75021;SDS011;63583;49.976;20.182;2023-08-21T02:46:40;17.15;;;13.85;;
75021;SDS011;63583;49.976;20.182;2023-08-21T02:49:06;18.90;;;14.07;;
75021;SDS011;63583;49.976;20.182;2023-08-21T02:51:31;15.77;;;13.55;;
75021;SDS011;63583;49.976;20.182;2023-08-21T02:53:57;17.27;;;13.48;;
75021;SDS011;63583;49.976;20.182;2023-08-21T02:56:23;17.10;;;13.73;;
75021;SDS011;63583;49.976;20.182;2023-08-21T02:58:48;17.00;;;13.25;;
75021;SDS011;63583;49.976;20.182;2023-08-21T03:01:14;17.23;;;14.15;;
75021;SDS011;63583;49.976;20.182;2023-08-21T03:03:40;16.67;;;12.48;;
75021;SDS011;63583;49.976;20.182;2023-08-21T03:06:05;16.70;;;13.63;;
75021;SDS011;63583;49.976;20.182;2023-08-21T03:08:31;17.02;;;14.13;;
75021;SDS011;63583;49.976;20.182;2023-08-21T03:10:56;15.48;;;13.00;;
75021;SDS011;63583;49.976;20.182;2023-08-21T03:13:22;17.17;;;14.30;;
75021;SDS011;63583;49.976;20.182;2023-08-21T03:15:48;16.40;;;13.85;;
75021;SDS011;63583;49.976;20.182;2023-08-21T03:18:13;18.52;;;14.13;;
75021;SDS011;63583;49.976;20.182;2023-08-21T03:20:44;17.80;;;14.48;;
75021;SDS011;63583;49.976;20.182;2023-08-21T03:23:13;16.92;;;14.02;;
75021;SDS011;63583;49.976;20.182;2023-08-21T03:25:39;16.98;;;13.20;;
75021;SDS011;63583;49.976;20.182;2023-08-21T03:28:05;17.08;;;14.30;;
75021;SDS011;63583;49.976;20.182;2023-08-21T03:30:30;16.45;;;13.07;;
75021;SDS011;63583;49.976;20.182;2023-08-21T03:32:56;18.02;;;14.15;;
75021;SDS011;63583;49.976;20.182;2023-08-21T03:35:21;17.90;;;14.52;;
75021;SDS011;63583;49.976;20.182;2023-08-21T03:37:47;16.60;;;14.40;;
75021;SDS011;63583;49.976;20.182;2023-08-21T03:40:13;17.83;;;14.27;;
75021;SDS011;63583;49.976;20.182;2023-08-21T03:42:38;18.65;;;14.45;;
75021;SDS011;63583;49.976;20.182;2023-08-21T03:45:04;16.55;;;14.18;;
75021;SDS011;63583;49.976;20.182;2023-08-21T03:47:30;18.95;;;13.95;;
75021;SDS011;63583;49.976;20.182;2023-08-21T03:49:56;17.35;;;14.05;;
75021;SDS011;63583;49.976;20.182;2023-08-21T03:52:22;18.67;;;14.40;;
75021;SDS011;63583;49.976;20.182;2023-08-21T03:54:47;16.88;;;13.02;;
75021;SDS011;63583;49.976;20.182;2023-08-21T03:57:13;17.80;;;13.85;;
75021;SDS011;63583;49.976;20.182;2023-08-21T03:59:38;18.63;;;14.50;;
75021;SDS011;63583;49.976;20.182;2023-08-21T04:02:04;17.13;;;14.13;;
75021;SDS011;63583;49.976;20.182;2023-08-21T04:04:30;18.30;;;14.10;;
75021;SDS011;63583;49.976;20.182;2023-08-21T04:06:56;16.95;;;13.55;;
75021;SDS011;63583;49.976;20.182;2023-08-21T04:09:21;17.58;;;14.88;;
75021;SDS011;63583;49.976;20.182;2023-08-21T04:11:47;17.75;;;13.75;;
75021;SDS011;63583;49.976;20.182;2023-08-21T04:14:12;16.13;;;14.27;;
75021;SDS011;63583;49.976;20.182;2023-08-21T04:16:38;17.90;;;14.30;;
75021;SDS011;63583;49.976;20.182;2023-08-21T04:19:04;16.63;;;13.60;;
75021;SDS011;63583;49.976;20.182;2023-08-21T04:21:31;16.50;;;13.55;;
75021;SDS011;63583;49.976;20.182;2023-08-21T04:23:56;18.83;;;14.30;;
75021;SDS011;63583;49.976;20.182;2023-08-21T04:26:22;15.95;;;13.43;;
75021;SDS011;63583;49.976;20.182;2023-08-21T04:28:48;16.55;;;12.63;;
75021;SDS011;63583;49.976;20.182;2023-08-21T04:31:13;16.30;;;13.88;;
75021;SDS011;63583;49.976;20.182;2023-08-21T04:33:39;16.40;;;13.18;;
75021;SDS011;63583;49.976;20.182;2023-08-21T04:36:05;16.08;;;13.00;;
75021;SDS011;63583;49.976;20.182;2023-08-21T04:38:30;17.00;;;13.52;;
75021;SDS011;63583;49.976;20.182;2023-08-21T04:41:00;15.00;;;13.00;;
75021;SDS011;63583;49.976;20.182;2023-08-21T04:43:31;16.00;;;12.60;;
75021;SDS011;63583;49.976;20.182;2023-08-21T04:45:57;18.23;;;13.82;;
75021;SDS011;63583;49.976;20.182;2023-08-21T04:48:22;16.75;;;13.27;;
75021;SDS011;63583;49.976;20.182;2023-08-21T04:50:48;15.35;;;12.75;;
75021;SDS011;63583;49.976;20.182;2023-08-21T04:53:14;14.73;;;12.32;;
75021;SDS011;63583;49.976;20.182;2023-08-21T04:55:40;17.55;;;13.48;;
75021;SDS011;63583;49.976;20.182;2023-08-21T04:58:06;14.30;;;12.45;;
75021;SDS011;63583;49.976;20.182;2023-08-21T05:00:33;14.45;;;12.40;;
75021;SDS011;63583;49.976;20.182;2023-08-21T05:02:58;14.95;;;12.55;;
75021;SDS011;63583;49.976;20.182;2023-08-21T05:05:24;18.83;;;13.77;;
75021;SDS011;63583;49.976;20.182;2023-08-21T05:07:51;17.05;;;13.38;;
75021;SDS011;63583;49.976;20.182;2023-08-21T05:10:18;17.40;;;12.73;;
75021;SDS011;63583;49.976;20.182;2023-08-21T05:12:44;14.73;;;11.88;;
75021;SDS011;63583;49.976;20.182;2023-08-21T05:15:10;15.73;;;12.85;;
75021;SDS011;63583;49.976;20.182;2023-08-21T05:17:36;15.73;;;12.65;;
75021;SDS011;63583;49.976;20.182;2023-08-21T05:20:02;21.67;;;13.88;;
75021;SDS011;63583;49.976;20.182;2023-08-21T05:22:28;16.05;;;12.73;;
75021;SDS011;63583;49.976;20.182;2023-08-21T05:24:54;18.55;;;12.60;;
75021;SDS011;63583;49.976;20.182;2023-08-21T05:27:19;17.35;;;12.20;;
75021;SDS011;63583;49.976;20.182;2023-08-21T05:29:45;16.90;;;12.35;;
75021;SDS011;63583;49.976;20.182;2023-08-21T05:32:11;13.98;;;11.77;;
75021;SDS011;63583;49.976;20.182;2023-08-21T05:34:36;13.20;;;11.30;;
75021;SDS011;63583;49.976;20.182;2023-08-21T05:37:02;13.93;;;11.40;;
75021;SDS011;63583;49.976;20.182;2023-08-21T05:39:28;14.77;;;12.02;;
75021;SDS011;63583;49.976;20.182;2023-08-21T05:41:54;14.80;;;11.82;;
75021;SDS011;63583;49.976;20.182;2023-08-21T05:44:19;14.55;;;12.77;;
75021;SDS011;63583;49.976;20.182;2023-08-21T05:46:45;15.10;;;11.73;;
75021;SDS011;63583;49.976;20.182;2023-08-21T05:49:11;16.38;;;13.38;;
75021;SDS011;63583;49.976;20.182;2023-08-21T05:51:36;15.43;;;12.32;;
75021;SDS011;63583;49.976;20.182;2023-08-21T05:54:02;13.55;;;12.15;;
75021;SDS011;63583;49.976;20.182;2023-08-21T05:56:28;14.93;;;12.10;;
75021;SDS011;63583;49.976;20.182;2023-08-21T05:58:54;13.88;;;11.93;;
75021;SDS011;63583;49.976;20.182;2023-08-21T06:01:19;14.45;;;11.73;;
75021;SDS011;63583;49.976;20.182;2023-08-21T06:03:45;17.30;;;12.05;;
75021;SDS011;63583;49.976;20.182;2023-08-21T06:06:10;14.23;;;12.23;;
75021;SDS011;63583;49.976;20.182;2023-08-21T06:08:36;16.08;;;13.20;;
75021;SDS011;63583;49.976;20.182;2023-08-21T06:11:02;14.63;;;12.20;;
75021;SDS011;63583;49.976;20.182;2023-08-21T06:13:28;14.93;;;12.50;;
75021;SDS011;63583;49.976;20.182;2023-08-21T06:15:53;16.80;;;12.95;;
75021;SDS011;63583;49.976;20.182;2023-08-21T06:18:20;14.77;;;12.55;;
75021;SDS011;63583;49.976;20.182;2023-08-21T06:20:45;16.08;;;12.70;;
75021;SDS011;63583;49.976;20.182;2023-08-21T06:23:11;14.57;;;12.80;;
75021;SDS011;63583;49.976;20.182;2023-08-21T06:25:37;15.07;;;11.85;;
75021;SDS011;63583;49.976;20.182;2023-08-21T06:28:03;14.05;;;12.15;;
75021;SDS011;63583;49.976;20.182;2023-08-21T06:30:29;16.02;;;11.82;;
75021;SDS011;63583;49.976;20.182;2023-08-21T06:32:55;12.05;;;10.55;;
75021;SDS011;63583;49.976;20.182;2023-08-21T06:35:20;13.60;;;11.30;;
75021;SDS011;63583;49.976;20.182;2023-08-21T06:37:46;13.77;;;11.32;;
75021;SDS011;63583;49.976;20.182;2023-08-21T06:40:11;16.75;;;12.45;;
75021;SDS011;63583;49.976;20.182;2023-08-21T06:42:37;14.85;;;12.30;;
75021;SDS011;63583;49.976;20.182;2023-08-21T06:45:03;13.25;;;11.85;;
75021;SDS011;63583;49.976;20.182;2023-08-21T06:47:30;14.30;;;12.00;;
75021;SDS011;63583;49.976;20.182;2023-08-21T06:49:57;17.73;;;13.00;;
75021;SDS011;63583;49.976;20.182;2023-08-21T06:52:22;13.93;;;11.93;;
75021;SDS011;63583;49.976;20.182;2023-08-21T06:54:48;14.13;;;12.20;;
75021;SDS011;63583;49.976;20.182;2023-08-21T06:57:14;13.18;;;11.70;;
75021;SDS011;63583;49.976;20.182;2023-08-21T06:59:39;14.02;;;11.55;;
75021;SDS011;63583;49.976;20.182;2023-08-21T07:02:05;15.85;;;12.07;;
75021;SDS011;63583;49.976;20.182;2023-08-21T07:04:31;15.45;;;12.07;;
75021;SDS011;63583;49.976;20.182;2023-08-21T07:06:59;12.82;;;10.80;;
75021;SDS011;63583;49.976;20.182;2023-08-21T07:09:24;14.18;;;10.88;;
75021;SDS011;63583;49.976;20.182;2023-08-21T07:11:50;12.75;;;11.02;;
75021;SDS011;63583;49.976;20.182;2023-08-21T07:14:16;12.07;;;10.88;;
75021;SDS011;63583;49.976;20.182;2023-08-21T07:16:42;16.52;;;10.73;;
75021;SDS011;63583;49.976;20.182;2023-08-21T07:19:08;13.35;;;11.25;;
75021;SDS011;63583;49.976;20.182;2023-08-21T07:21:34;15.25;;;11.27;;
75021;SDS011;63583;49.976;20.182;2023-08-21T07:24:04;15.15;;;11.50;;
75021;SDS011;63583;49.976;20.182;2023-08-21T07:26:30;14.50;;;11.95;;
75021;SDS011;63583;49.976;20.182;2023-08-21T07:28:56;14.32;;;11.55;;
75021;SDS011;63583;49.976;20.182;2023-08-21T07:31:22;14.90;;;11.52;;
75021;SDS011;63583;49.976;20.182;2023-08-21T07:33:48;14.18;;;11.15;;
75021;SDS011;63583;49.976;20.182;2023-08-21T07:36:14;13.23;;;11.75;;
75021;SDS011;63583;49.976;20.182;2023-08-21T07:38:42;14.38;;;11.93;;
75021;SDS011;63583;49.976;20.182;2023-08-21T07:41:09;14.27;;;11.55;;
75021;SDS011;63583;49.976;20.182;2023-08-21T07:43:40;13.13;;;10.95;;
75021;SDS011;63583;49.976;20.182;2023-08-21T07:46:06;13.50;;;10.75;;
75021;SDS011;63583;49.976;20.182;2023-08-21T07:48:35;12.48;;;10.50;;
75021;SDS011;63583;49.976;20.182;2023-08-21T07:51:00;12.85;;;11.00;;
75021;SDS011;63583;49.976;20.182;2023-08-21T07:53:26;13.98;;;11.40;;
75021;SDS011;63583;49.976;20.182;2023-08-21T07:55:52;15.88;;;12.50;;
75021;SDS011;63583;49.976;20.182;2023-08-21T07:58:18;12.48;;;11.18;;
75021;SDS011;63583;49.976;20.182;2023-08-21T08:00:44;13.05;;;11.65;;
75021;SDS011;63583;49.976;20.182;2023-08-21T08:03:10;12.57;;;10.70;;
75021;SDS011;63583;49.976;20.182;2023-08-21T08:05:37;17.48;;;11.70;;
75021;SDS011;63583;49.976;20.182;2023-08-21T08:08:03;16.27;;;11.52;;
75021;SDS011;63583;49.976;20.182;2023-08-21T08:10:29;11.80;;;10.32;;
75021;SDS011;63583;49.976;20.182;2023-08-21T08:12:55;13.27;;;11.20;;
75021;SDS011;63583;49.976;20.182;2023-08-21T08:15:21;13.77;;;10.30;;
75021;SDS011;63583;49.976;20.182;2023-08-21T08:17:47;13.93;;;10.73;;
75021;SDS011;63583;49.976;20.182;2023-08-21T08:20:17;12.98;;;10.95;;
75021;SDS011;63583;49.976;20.182;2023-08-21T08:22:43;13.95;;;10.82;;
75021;SDS011;63583;49.976;20.182;2023-08-21T08:25:09;14.18;;;11.02;;
75021;SDS011;63583;49.976;20.182;2023-08-21T08:27:35;13.48;;;11.13;;
75021;SDS011;63583;49.976;20.182;2023-08-21T08:30:01;13.70;;;11.13;;
75021;SDS011;63583;49.976;20.182;2023-08-21T08:32:28;12.00;;;10.70;;
75021;SDS011;63583;49.976;20.182;2023-08-21T08:34:54;12.48;;;10.60;;
75021;SDS011;63583;49.976;20.182;2023-08-21T08:37:19;12.45;;;10.57;;
75021;SDS011;63583;49.976;20.182;2023-08-21T08:39:48;13.10;;;11.73;;
75021;SDS011;63583;49.976;20.182;2023-08-21T08:42:14;13.15;;;10.60;;
75021;SDS011;63583;49.976;20.182;2023-08-21T08:44:41;13.80;;;10.85;;
75021;SDS011;63583;49.976;20.182;2023-08-21T08:47:07;15.35;;;10.77;;
75021;SDS011;63583;49.976;20.182;2023-08-21T08:49:34;15.52;;;11.07;;
75021;SDS011;63583;49.976;20.182;2023-08-21T08:52:00;14.52;;;11.27;;
75021;SDS011;63583;49.976;20.182;2023-08-21T08:54:26;14.63;;;11.57;;
75021;SDS011;63583;49.976;20.182;2023-08-21T08:56:52;18.15;;;11.77;;
75021;SDS011;63583;49.976;20.182;2023-08-21T08:59:19;15.65;;;12.50;;
75021;SDS011;63583;49.976;20.182;2023-08-21T09:01:45;15.27;;;12.57;;
75021;SDS011;63583;49.976;20.182;2023-08-21T09:04:11;13.57;;;11.85;;
75021;SDS011;63583;49.976;20.182;2023-08-21T09:06:37;20.52;;;12.82;;
75021;SDS011;63583;49.976;20.182;2023-08-21T09:09:03;18.40;;;14.20;;
75021;SDS011;63583;49.976;20.182;2023-08-21T09:11:29;19.08;;;16.02;;
75021;SDS011;63583;49.976;20.182;2023-08-21T09:13:55;27.17;;;17.67;;
75021;SDS011;63583;49.976;20.182;2023-08-21T09:16:22;29.42;;;18.02;;
75021;SDS011;63583;49.976;20.182;2023-08-21T09:18:50;26.80;;;16.90;;
75021;SDS011;63583;49.976;20.182;2023-08-21T09:21:18;24.98;;;16.55;;
75021;SDS011;63583;49.976;20.182;2023-08-21T09:23:45;26.20;;;15.35;;
75021;SDS011;63583;49.976;20.182;2023-08-21T09:26:17;25.73;;;16.17;;
75021;SDS011;63583;49.976;20.182;2023-08-21T09:28:50;25.45;;;16.38;;
75021;SDS011;63583;49.976;20.182;2023-08-21T09:31:24;21.67;;;15.10;;
75021;SDS011;63583;49.976;20.182;2023-08-21T09:33:56;21.55;;;14.30;;
75021;SDS011;63583;49.976;20.182;2023-08-21T09:36:26;20.73;;;14.85;;
75021;SDS011;63583;49.976;20.182;2023-08-21T09:38:53;22.40;;;16.10;;
75021;SDS011;63583;49.976;20.182;2023-08-21T09:41:19;21.90;;;15.80;;
75021;SDS011;63583;49.976;20.182;2023-08-21T09:43:45;22.67;;;16.60;;
75021;SDS011;63583;49.976;20.182;2023-08-21T09:46:23;24.20;;;16.10;;
75021;SDS011;63583;49.976;20.182;2023-08-21T09:48:51;23.77;;;16.05;;
75021;SDS011;63583;49.976;20.182;2023-08-21T09:51:17;25.70;;;16.70;;
75021;SDS011;63583;49.976;20.182;2023-08-21T09:53:44;23.48;;;16.38;;
75021;SDS011;63583;49.976;20.182;2023-08-21T09:56:10;22.30;;;17.23;;
75021;SDS011;63583;49.976;20.182;2023-08-21T09:58:36;22.92;;;15.55;;
75021;SDS011;63583;49.976;20.182;2023-08-21T10:01:06;21.67;;;15.80;;
75021;SDS011;63583;49.976;20.182;2023-08-21T10:03:42;25.35;;;14.85;;
75021;SDS011;63583;49.976;20.182;2023-08-21T10:06:12;20.83;;;15.73;;
75021;SDS011;63583;49.976;20.182;2023-08-21T10:08:41;23.35;;;14.68;;
75021;SDS011;63583;49.976;20.182;2023-08-21T10:11:11;21.15;;;15.90;;
75021;SDS011;63583;49.976;20.182;2023-08-21T10:13:37;20.30;;;13.43;;
75021;SDS011;63583;49.976;20.182;2023-08-21T10:16:04;17.90;;;13.63;;
75021;SDS011;63583;49.976;20.182;2023-08-21T10:18:32;18.63;;;14.32;;
75021;SDS011;63583;49.976;20.182;2023-08-21T10:21:11;17.67;;;14.00;;
75021;SDS011;63583;49.976;20.182;2023-08-21T10:23:42;18.20;;;12.38;;
75021;SDS011;63583;49.976;20.182;2023-08-21T10:26:11;15.27;;;12.13;;
75021;SDS011;63583;49.976;20.182;2023-08-21T10:28:56;17.77;;;12.95;;
75021;SDS011;63583;49.976;20.182;2023-08-21T10:31:32;17.75;;;13.73;;
75021;SDS011;63583;49.976;20.182;2023-08-21T10:34:05;16.17;;;13.07;;
75021;SDS011;63583;49.976;20.182;2023-08-21T10:36:39;17.83;;;13.45;;
75021;SDS011;63583;49.976;20.182;2023-08-21T10:39:21;17.90;;;13.73;;
75021;SDS011;63583;49.976;20.182;2023-08-21T10:42:00;18.80;;;13.40;;
75021;SDS011;63583;49.976;20.182;2023-08-21T10:47:16;19.17;;;13.80;;
75021;SDS011;63583;49.976;20.182;2023-08-21T10:49:55;18.20;;;13.45;;
75021;SDS011;63583;49.976;20.182;2023-08-21T10:54:52;18.85;;;13.25;;
75021;SDS011;63583;49.976;20.182;2023-08-21T10:57:19;21.30;;;13.43;;
75021;SDS011;63583;49.976;20.182;2023-08-21T10:59:55;18.40;;;13.65;;
75021;SDS011;63583;49.976;20.182;2023-08-21T11:02:22;21.48;;;14.07;;
75021;SDS011;63583;49.976;20.182;2023-08-21T11:04:52;19.35;;;13.32;;
75021;SDS011;63583;49.976;20.182;2023-08-21T11:07:18;21.02;;;13.98;;
75021;SDS011;63583;49.976;20.182;2023-08-21T11:09:44;18.42;;;13.55;;
75021;SDS011;63583;49.976;20.182;2023-08-21T11:12:14;17.92;;;13.50;;
75021;SDS011;63583;49.976;20.182;2023-08-21T11:14:41;23.17;;;15.10;;
75021;SDS011;63583;49.976;20.182;2023-08-21T11:17:07;23.92;;;14.38;;
75021;SDS011;63583;49.976;20.182;2023-08-21T11:19:34;23.80;;;15.23;;
75021;SDS011;63583;49.976;20.182;2023-08-21T11:22:01;21.80;;;14.57;;
75021;SDS011;63583;49.976;20.182;2023-08-21T11:27:24;19.48;;;14.88;;
75021;SDS011;63583;49.976;20.182;2023-08-21T11:29:50;20.33;;;14.77;;
75021;SDS011;63583;49.976;20.182;2023-08-21T11:32:20;23.40;;;16.33;;
75021;SDS011;63583;49.976;20.182;2023-08-21T11:34:52;21.33;;;14.82;;
75021;SDS011;63583;49.976;20.182;2023-08-21T11:37:22;20.60;;;14.90;;
75021;SDS011;63583;49.976;20.182;2023-08-21T11:39:51;22.55;;;15.38;;
75021;SDS011;63583;49.976;20.182;2023-08-21T11:42:18;22.98;;;15.25;;
75021;SDS011;63583;49.976;20.182;2023-08-21T11:44:46;21.17;;;14.95;;
75021;SDS011;63583;49.976;20.182;2023-08-21T11:47:15;22.08;;;15.07;;
75021;SDS011;63583;49.976;20.182;2023-08-21T11:49:42;21.58;;;14.80;;
75021;SDS011;63583;49.976;20.182;2023-08-21T11:52:11;23.92;;;15.07;;
75021;SDS011;63583;49.976;20.182;2023-08-21T11:54:38;21.17;;;15.48;;
75021;SDS011;63583;49.976;20.182;2023-08-21T11:57:11;21.67;;;15.55;;
75021;SDS011;63583;49.976;20.182;2023-08-21T11:59:39;22.75;;;15.77;;
75021;SDS011;63583;49.976;20.182;2023-08-21T12:02:14;29.52;;;17.63;;
75021;SDS011;63583;49.976;20.182;2023-08-21T12:04:42;20.42;;;15.73;;
75021;SDS011;63583;49.976;20.182;2023-08-21T12:07:08;23.60;;;15.43;;
75021;SDS011;63583;49.976;20.182;2023-08-21T12:09:34;24.80;;;16.38;;
75021;SDS011;63583;49.976;20.182;2023-08-21T12:11:59;22.25;;;16.52;;
75021;SDS011;63583;49.976;20.182;2023-08-21T12:14:27;22.45;;;16.08;;
75021;SDS011;63583;49.976;20.182;2023-08-21T12:16:53;24.45;;;16.63;;
75021;SDS011;63583;49.976;20.182;2023-08-21T12:19:20;23.85;;;17.15;;
75021;SDS011;63583;49.976;20.182;2023-08-21T12:21:47;22.27;;;15.60;;
75021;SDS011;63583;49.976;20.182;2023-08-21T12:24:13;24.75;;;17.45;;
75021;SDS011;63583;49.976;20.182;2023-08-21T12:26:38;23.35;;;17.05;;
75021;SDS011;63583;49.976;20.182;2023-08-21T12:29:04;20.17;;;16.05;;
75021;SDS011;63583;49.976;20.182;2023-08-21T12:31:29;24.63;;;15.63;;
75021;SDS011;63583;49.976;20.182;2023-08-21T12:33:55;22.73;;;16.63;;
75021;SDS011;63583;49.976;20.182;2023-08-21T12:36:21;22.13;;;15.80;;
75021;SDS011;63583;49.976;20.182;2023-08-21T12:38:47;23.30;;;15.30;;
75021;SDS011;63583;49.976;20.182;2023-08-21T12:41:13;23.23;;;16.27;;
75021;SDS011;63583;49.976;20.182;2023-08-21T12:43:39;23.80;;;16.83;;
75021;SDS011;63583;49.976;20.182;2023-08-21T12:46:04;26.27;;;16.23;;
75021;SDS011;63583;49.976;20.182;2023-08-21T12:48:30;23.60;;;17.15;;
75021;SDS011;63583;49.976;20.182;2023-08-21T12:50:56;22.88;;;16.02;;
75021;SDS011;63583;49.976;20.182;2023-08-21T12:53:22;23.60;;;16.75;;
75021;SDS011;63583;49.976;20.182;2023-08-21T12:55:47;23.67;;;15.73;;
75021;SDS011;63583;49.976;20.182;2023-08-21T12:58:14;24.50;;;16.77;;
75021;SDS011;63583;49.976;20.182;2023-08-21T13:00:40;25.00;;;16.50;;
75021;SDS011;63583;49.976;20.182;2023-08-21T13:03:06;21.55;;;15.55;;
75021;SDS011;63583;49.976;20.182;2023-08-21T13:05:31;21.13;;;15.95;;
75021;SDS011;63583;49.976;20.182;2023-08-21T13:07:57;21.50;;;14.05;;
75021;SDS011;63583;49.976;20.182;2023-08-21T13:10:22;20.75;;;14.60;;
75021;SDS011;63583;49.976;20.182;2023-08-21T13:12:48;20.63;;;13.88;;
75021;SDS011;63583;49.976;20.182;2023-08-21T13:15:15;18.80;;;13.57;;
75021;SDS011;63583;49.976;20.182;2023-08-21T13:17:40;18.80;;;14.13;;
75021;SDS011;63583;49.976;20.182;2023-08-21T13:20:07;20.10;;;14.70;;
75021;SDS011;63583;49.976;20.182;2023-08-21T13:22:44;21.13;;;15.60;;
75021;SDS011;63583;49.976;20.182;2023-08-21T13:25:11;20.10;;;14.63;;
75021;SDS011;63583;49.976;20.182;2023-08-21T13:27:37;18.35;;;14.25;;
75021;SDS011;63583;49.976;20.182;2023-08-21T13:30:02;18.67;;;14.10;;
75021;SDS011;63583;49.976;20.182;2023-08-21T13:34:56;20.30;;;15.45;;
75021;SDS011;63583;49.976;20.182;2023-08-21T13:37:22;20.48;;;14.23;;
75021;SDS011;63583;49.976;20.182;2023-08-21T13:39:48;21.27;;;15.60;;
75021;SDS011;63583;49.976;20.182;2023-08-21T13:42:14;23.52;;;14.88;;
75021;SDS011;63583;49.976;20.182;2023-08-21T13:44:39;21.42;;;14.57;;
75021;SDS011;63583;49.976;20.182;2023-08-21T13:47:05;18.85;;;14.73;;
75021;SDS011;63583;49.976;20.182;2023-08-21T13:49:31;18.30;;;14.25;;
75021;SDS011;63583;49.976;20.182;2023-08-21T13:51:57;19.65;;;13.38;;
75021;SDS011;63583;49.976;20.182;2023-08-21T13:54:22;17.60;;;14.23;;
75021;SDS011;63583;49.976;20.182;2023-08-21T13:56:48;20.30;;;14.25;;
75021;SDS011;63583;49.976;20.182;2023-08-21T13:59:14;20.08;;;13.15;;
75021;SDS011;63583;49.976;20.182;2023-08-21T14:01:39;18.55;;;13.73;;
75021;SDS011;63583;49.976;20.182;2023-08-21T14:04:05;18.75;;;14.05;;
75021;SDS011;63583;49.976;20.182;2023-08-21T14:06:31;18.92;;;13.23;;
75021;SDS011;63583;49.976;20.182;2023-08-21T14:08:56;19.02;;;13.70;;
75021;SDS011;63583;49.976;20.182;2023-08-21T14:11:22;16.52;;;12.85;;
75021;SDS011;63583;49.976;20.182;2023-08-21T14:13:48;17.63;;;12.52;;
75021;SDS011;63583;49.976;20.182;2023-08-21T14:16:13;15.55;;;11.88;;
75021;SDS011;63583;49.976;20.182;2023-08-21T14:18:39;19.92;;;13.65;;